Time;durP1;ratioP1;P1;durP2;ratioP2;P2;SDS_P1;SDS_P2;PMS_P1;PMS_P2;Temp;Humidity;BMP_temperature;BMP_pressure;BME280_temperature;BME280_humidity;BME280_pressure;Samples;Min_cycle;Max_cycle;Signal;HPM_P1;HPM_P2
2022/01/31 00:01:00;;;;;;;30.70;5.57;;;4.00;99.90;;;;;;5027451;28;20185;-83
2022/01/31 00:03:26;;;;;;;30.67;5.20;;;4.00;99.90;;;;;;5025273;28;20250;-84
2022/01/31 00:05:53;;;;;;;30.57;5.50;;;4.10;99.90;;;;;;5023106;28;20232;-83
2022/01/31 00:08:23;;;;;;;22.00;4.93;;;4.10;99.90;;;;;;5019280;28;20171;-84
2022/01/31 00:10:49;;;;;;;18.13;5.67;;;4.10;99.90;;;;;;5020022;28;20167;-81
2022/01/31 00:13:27;;;;;;;27.20;4.47;;;4.10;99.90;;;;;;5019048;28;20293;-83
2022/01/31 00:15:55;;;;;;;31.13;5.40;;;4.10;99.90;;;;;;5022980;28;20214;-83
2022/01/31 00:18:21;;;;;;;29.23;5.60;;;4.10;99.90;;;;;;5025475;28;20178;-83
2022/01/31 00:20:47;;;;;;;32.00;6.77;;;4.20;99.90;;;;;;5024948;28;20658;-83
2022/01/31 00:23:13;;;;;;;22.20;5.40;;;4.20;99.90;;;;;;5025714;28;20592;-83
2022/01/31 00:25:39;;;;;;;30.30;5.23;;;4.20;99.90;;;;;;5025490;28;20689;-83
2022/01/31 00:28:05;;;;;;;20.70;5.13;;;4.10;99.90;;;;;;5024245;28;20350;-83
2022/01/31 00:30:31;;;;;;;21.50;5.10;;;4.10;99.90;;;;;;5023940;28;20184;-84
2022/01/31 00:32:56;;;;;;;26.47;5.33;;;4.10;99.90;;;;;;5021537;28;20269;-84
2022/01/31 00:35:22;;;;;;;27.10;6.03;;;4.10;99.90;;;;;;5023444;28;20663;-84
2022/01/31 00:37:48;;;;;;;29.90;5.33;;;4.10;99.90;;;;;;5019699;28;20257;-84
2022/01/31 00:40:14;;;;;;;19.07;4.63;;;4.00;99.90;;;;;;5019411;28;20627;-83
2022/01/31 00:42:40;;;;;;;17.87;4.87;;;4.00;99.90;;;;;;5019338;28;20219;-83
2022/01/31 00:45:29;;;;;;;29.37;6.07;;;4.00;99.90;;;;;;5018629;28;20245;-83
2022/01/31 00:48:03;;;;;;;16.07;4.07;;;4.10;99.90;;;;;;5038593;28;20189;-83
2022/01/31 00:50:36;;;;;;;24.83;5.10;;;4.10;99.90;;;;;;5019364;28;20163;-84
2022/01/31 00:53:02;;;;;;;27.10;5.10;;;4.10;99.90;;;;;;5019808;28;20179;-84
2022/01/31 00:55:28;;;;;;;17.87;4.73;;;4.20;99.90;;;;;;5020790;28;20690;-84
2022/01/31 00:57:54;;;;;;;24.17;4.87;;;4.20;99.90;;;;;;5021879;28;20176;-83
2022/01/31 01:00:19;;;;;;;24.03;4.30;;;4.30;99.90;;;;;;5021525;28;20174;-84
2022/01/31 01:02:45;;;;;;;20.63;4.73;;;4.20;99.90;;;;;;5021949;28;20179;-84
2022/01/31 01:05:11;;;;;;;28.03;4.70;;;4.30;99.90;;;;;;5022311;28;20205;-84
2022/01/31 01:07:37;;;;;;;17.87;4.17;;;4.30;99.90;;;;;;5023976;28;20180;-84
2022/01/31 01:10:03;;;;;;;19.63;4.73;;;4.30;99.90;;;;;;5022656;28;20174;-84
2022/01/31 01:12:29;;;;;;;14.43;3.97;;;4.20;99.90;;;;;;5021313;28;20660;-84
2022/01/31 01:14:55;;;;;;;10.00;3.70;;;4.30;99.90;;;;;;5021166;28;20261;-84
2022/01/31 01:17:21;;;;;;;26.37;4.73;;;4.30;99.90;;;;;;5021300;28;20344;-84
2022/01/31 01:19:46;;;;;;;24.40;4.63;;;4.20;99.90;;;;;;5021106;28;20206;-84
2022/01/31 01:22:12;;;;;;;15.67;4.23;;;4.20;99.90;;;;;;5021432;28;20691;-84
2022/01/31 01:24:38;;;;;;;19.47;4.23;;;4.30;99.90;;;;;;5023202;28;20568;-84
2022/01/31 01:27:04;;;;;;;22.23;4.60;;;4.30;99.90;;;;;;5025168;28;20196;-85
2022/01/31 01:29:29;;;;;;;16.27;5.03;;;4.40;99.90;;;;;;5029913;28;20184;-85
2022/01/31 01:31:56;;;;;;;20.50;4.20;;;4.40;99.90;;;;;;5025922;28;20218;-85
2022/01/31 01:34:22;;;;;;;18.57;4.00;;;4.40;99.90;;;;;;5027293;28;20182;-84
2022/01/31 01:36:52;;;;;;;22.53;4.60;;;4.40;99.90;;;;;;5026676;28;20215;-84
2022/01/31 01:39:18;;;;;;;18.10;3.53;;;4.40;99.90;;;;;;5025148;28;20247;-85
2022/01/31 01:41:44;;;;;;;16.07;4.03;;;4.40;99.90;;;;;;5023205;28;20627;-85
2022/01/31 01:44:10;;;;;;;14.37;3.87;;;4.40;99.90;;;;;;5020697;28;20180;-84
2022/01/31 01:46:36;;;;;;;14.93;4.30;;;4.50;99.90;;;;;;5023750;28;20226;-84
2022/01/31 01:49:01;;;;;;;18.50;4.20;;;4.50;99.90;;;;;;5020944;28;20199;-84
2022/01/31 01:51:27;;;;;;;15.83;4.30;;;4.50;99.90;;;;;;5019152;28;20182;-84
2022/01/31 01:53:53;;;;;;;22.70;4.40;;;4.60;99.90;;;;;;5018531;28;20234;-83
2022/01/31 01:56:19;;;;;;;15.23;3.67;;;4.60;99.90;;;;;;5020090;28;20578;-83
2022/01/31 01:58:47;;;;;;;17.13;4.00;;;4.60;99.90;;;;;;5023542;28;20175;-84
2022/01/31 02:01:13;;;;;;;13.03;3.33;;;4.60;99.90;;;;;;5022632;28;20168;-84
2022/01/31 02:03:40;;;;;;;20.13;3.83;;;4.60;99.90;;;;;;5022994;28;20190;-84
2022/01/31 02:06:07;;;;;;;14.97;4.50;;;4.60;99.90;;;;;;5023459;28;20259;-84
2022/01/31 02:08:42;;;;;;;15.00;3.83;;;4.60;99.90;;;;;;5006212;28;20188;-84
2022/01/31 02:11:10;;;;;;;11.17;3.43;;;4.60;99.90;;;;;;5023750;28;20256;-84
2022/01/31 02:13:37;;;;;;;11.47;3.50;;;4.60;99.90;;;;;;5023555;28;20183;-84
2022/01/31 02:16:04;;;;;;;16.73;4.00;;;4.60;99.90;;;;;;5021787;28;20218;-84
2022/01/31 02:18:30;;;;;;;18.90;3.97;;;4.60;99.90;;;;;;5022801;28;20167;-83
2022/01/31 02:20:56;;;;;;;12.87;3.57;;;4.60;99.90;;;;;;5021051;28;20177;-84
2022/01/31 02:23:23;;;;;;;28.70;4.47;;;4.60;99.90;;;;;;5020918;28;20677;-85
2022/01/31 02:26:03;;;;;;;19.27;3.67;;;4.50;99.90;;;;;;5019927;28;20194;-83
2022/01/31 02:28:32;;;;;;;16.07;4.57;;;4.50;99.90;;;;;;5018596;28;20195;-84
2022/01/31 02:30:58;;;;;;;12.47;4.67;;;4.40;99.90;;;;;;5018715;28;20178;-83
2022/01/31 02:33:24;;;;;;;19.40;4.43;;;4.40;99.90;;;;;;5018922;28;20206;-83
2022/01/31 02:35:54;;;;;;;28.67;4.67;;;4.30;99.90;;;;;;5019306;28;20207;-84
2022/01/31 02:38:19;;;;;;;16.17;4.43;;;4.20;99.90;;;;;;5019408;28;20534;-83
2022/01/31 02:40:45;;;;;;;14.60;4.03;;;4.10;99.90;;;;;;5019088;28;20171;-84
2022/01/31 02:43:17;;;;;;;19.93;3.63;;;4.10;99.90;;;;;;5018790;28;20167;-84
2022/01/31 02:45:43;;;;;;;15.17;3.90;;;4.00;99.90;;;;;;5018243;28;20576;-82
2022/01/31 02:48:09;;;;;;;21.27;4.60;;;3.90;99.90;;;;;;5018623;28;20175;-83
2022/01/31 02:50:34;;;;;;;14.60;4.67;;;3.80;99.90;;;;;;5019686;28;20174;-83
2022/01/31 02:53:14;;;;;;;10.63;4.07;;;3.80;99.90;;;;;;5022469;28;20261;-82
2022/01/31 02:55:43;;;;;;;13.07;4.30;;;3.70;99.90;;;;;;5022312;28;20273;-83
2022/01/31 02:58:09;;;;;;;17.37;5.10;;;3.60;99.90;;;;;;5021711;28;20180;-84
2022/01/31 03:00:35;;;;;;;14.87;4.47;;;3.60;99.90;;;;;;5021447;28;20216;-82
2022/01/31 03:03:02;;;;;;;12.50;4.40;;;3.60;99.90;;;;;;5021819;28;20532;-82
2022/01/31 03:05:28;;;;;;;10.20;4.37;;;3.50;99.90;;;;;;5022152;28;20197;-82
2022/01/31 03:07:53;;;;;;;18.73;4.97;;;3.50;99.90;;;;;;5021846;28;20178;-84
2022/01/31 03:10:19;;;;;;;13.47;4.73;;;3.50;99.90;;;;;;5021925;28;20192;-82
2022/01/31 03:12:44;;;;;;;13.07;4.87;;;3.40;99.90;;;;;;5021167;28;20174;-85
2022/01/31 03:15:10;;;;;;;17.57;5.30;;;3.30;99.90;;;;;;5021163;28;20186;-84
2022/01/31 03:17:37;;;;;;;8.97;4.43;;;3.20;99.90;;;;;;5020981;28;20162;-84
2022/01/31 03:20:05;;;;;;;14.73;4.73;;;3.20;99.90;;;;;;5021486;28;20713;-83
2022/01/31 03:22:30;;;;;;;12.67;4.77;;;3.20;99.90;;;;;;5020366;28;20220;-83
2022/01/31 03:24:56;;;;;;;17.07;4.83;;;3.20;99.90;;;;;;5020150;28;20166;-84
2022/01/31 03:27:21;;;;;;;13.83;5.07;;;3.10;99.90;;;;;;5020851;28;20605;-82
2022/01/31 03:29:47;;;;;;;10.90;4.93;;;3.20;99.90;;;;;;5020520;28;20178;-84
2022/01/31 03:32:13;;;;;;;13.03;5.30;;;3.10;99.90;;;;;;5020716;28;20224;-83
2022/01/31 03:34:38;;;;;;;12.67;5.23;;;3.10;99.90;;;;;;5021312;28;20173;-83
2022/01/31 03:37:04;;;;;;;10.33;4.80;;;3.00;99.90;;;;;;5020086;28;20204;-84
2022/01/31 03:39:30;;;;;;;16.00;4.93;;;2.80;99.90;;;;;;5021293;28;20174;-85
2022/01/31 03:41:56;;;;;;;18.40;4.90;;;2.70;99.90;;;;;;5039339;28;20170;-85
2022/01/31 03:44:21;;;;;;;17.03;5.40;;;2.70;99.90;;;;;;5021481;28;20174;-85
2022/01/31 03:46:47;;;;;;;13.97;5.30;;;2.70;99.90;;;;;;5020247;28;20198;-83
2022/01/31 03:49:12;;;;;;;9.27;4.67;;;2.70;99.90;;;;;;5020102;28;20173;-83
2022/01/31 03:51:38;;;;;;;13.43;5.03;;;2.70;99.90;;;;;;5019500;28;20177;-82
2022/01/31 03:54:04;;;;;;;11.87;4.67;;;2.70;99.90;;;;;;5019235;28;20202;-84
2022/01/31 03:56:30;;;;;;;11.43;5.53;;;2.60;99.90;;;;;;5019588;28;20232;-82
2022/01/31 03:58:56;;;;;;;8.50;5.13;;;2.70;99.90;;;;;;5019631;28;20707;-84
2022/01/31 04:01:26;;;;;;;10.60;5.37;;;2.60;99.90;;;;;;5018885;28;20158;-83
2022/01/31 04:03:51;;;;;;;10.97;6.07;;;2.70;99.90;;;;;;5022408;28;20179;-85
2022/01/31 04:06:17;;;;;;;7.90;5.20;;;2.70;99.90;;;;;;5021421;28;20695;-84
2022/01/31 04:08:43;;;;;;;13.57;5.80;;;2.70;99.90;;;;;;5021900;28;20185;-83
2022/01/31 04:11:10;;;;;;;11.57;5.67;;;2.70;99.90;;;;;;5022492;28;20554;-85
2022/01/31 04:13:36;;;;;;;12.87;5.93;;;2.70;99.90;;;;;;5022433;28;20176;-84
2022/01/31 04:16:02;;;;;;;15.30;6.43;;;2.70;99.90;;;;;;5020948;28;20223;-84
2022/01/31 04:18:28;;;;;;;9.87;5.67;;;2.80;99.90;;;;;;5021194;28;20543;-84
2022/01/31 04:20:54;;;;;;;12.90;6.30;;;2.80;99.90;;;;;;5020810;28;20188;-84
2022/01/31 04:23:22;;;;;;;11.70;6.60;;;2.80;99.90;;;;;;5023659;28;20169;-85
2022/01/31 04:28:21;;;;;;;10.47;6.00;;;2.90;99.90;;;;;;5041897;28;20205;-84
2022/01/31 04:33:22;;;;;;;9.70;5.03;;;3.00;99.90;;;;;;5045490;28;20170;-85
2022/01/31 04:35:48;;;;;;;10.97;5.20;;;3.10;99.90;;;;;;5041421;28;20593;-86
2022/01/31 04:38:14;;;;;;;8.97;5.20;;;3.10;99.90;;;;;;5022021;28;20166;-85
2022/01/31 04:40:40;;;;;;;8.53;5.43;;;3.20;99.90;;;;;;5022451;28;20550;-85
2022/01/31 04:43:05;;;;;;;9.63;5.47;;;3.20;99.90;;;;;;5022703;28;20176;-84
2022/01/31 04:45:31;;;;;;;8.47;5.00;;;3.20;99.90;;;;;;5022051;28;20190;-84
2022/01/31 04:47:57;;;;;;;7.50;4.63;;;3.30;99.90;;;;;;5022278;28;20177;-83
2022/01/31 04:50:23;;;;;;;5.13;4.13;;;3.30;99.90;;;;;;5022058;28;20589;-84
2022/01/31 04:52:48;;;;;;;8.13;4.30;;;3.40;99.90;;;;;;5021084;28;20642;-84
2022/01/31 04:55:14;;;;;;;8.23;4.20;;;3.40;99.90;;;;;;5021357;28;20177;-86
2022/01/31 04:57:41;;;;;;;5.90;4.13;;;3.50;99.90;;;;;;5020233;28;20197;-85
2022/01/31 05:00:08;;;;;;;7.27;3.90;;;3.50;99.90;;;;;;5020266;28;20166;-85
2022/01/31 05:02:34;;;;;;;4.13;3.47;;;3.50;99.90;;;;;;5050159;23;20233;-83
2022/01/31 05:05:01;;;;;;;6.00;4.00;;;3.50;99.90;;;;;;5054409;28;20200;-83
2022/01/31 05:07:26;;;;;;;8.77;4.23;;;3.60;99.90;;;;;;5055420;28;20222;-83
2022/01/31 05:09:52;;;;;;;8.63;4.40;;;3.60;99.90;;;;;;5043117;28;20195;-83
2022/01/31 05:12:17;;;;;;;6.13;4.07;;;3.70;99.90;;;;;;5016458;28;20182;-83
2022/01/31 05:14:43;;;;;;;10.97;4.80;;;3.70;99.90;;;;;;5035487;28;20182;-83
2022/01/31 05:17:09;;;;;;;7.27;4.50;;;3.70;99.90;;;;;;5034679;28;20202;-82
2022/01/31 05:19:34;;;;;;;9.77;4.40;;;3.80;99.90;;;;;;5035115;28;20193;-83
2022/01/31 05:22:00;;;;;;;6.53;4.37;;;3.80;99.90;;;;;;5017090;28;20178;-83
2022/01/31 05:24:27;;;;;;;10.53;4.53;;;3.90;99.90;;;;;;5036059;28;20171;-83
2022/01/31 05:26:53;;;;;;;10.27;4.50;;;3.90;99.90;;;;;;5039044;28;20277;-83
2022/01/31 05:29:20;;;;;;;10.17;4.73;;;3.90;99.90;;;;;;5042364;28;20194;-83
2022/01/31 05:31:46;;;;;;;7.30;4.80;;;4.00;99.90;;;;;;5032727;28;20178;-83
2022/01/31 05:34:12;;;;;;;11.23;4.27;;;4.00;99.90;;;;;;5015324;28;20198;-83
2022/01/31 05:36:39;;;;;;;7.57;4.50;;;4.00;99.90;;;;;;5015057;28;20210;-83
2022/01/31 05:39:04;;;;;;;9.03;4.20;;;4.10;99.90;;;;;;5014633;28;20194;-83
2022/01/31 05:41:30;;;;;;;11.00;4.50;;;4.20;99.90;;;;;;5032741;28;20169;-84
2022/01/31 05:43:55;;;;;;;10.83;4.60;;;4.30;99.90;;;;;;5034030;28;20178;-83
2022/01/31 05:46:21;;;;;;;10.17;4.70;;;4.30;99.90;;;;;;5015520;28;20183;-83
2022/01/31 05:48:46;;;;;;;12.63;4.17;;;4.30;99.90;;;;;;5033260;28;20791;-83
2022/01/31 05:51:18;;;;;;;8.60;4.57;;;4.40;99.90;;;;;;5015374;28;20175;-83
2022/01/31 05:53:46;;;;;;;9.67;4.47;;;4.40;99.90;;;;;;5015872;28;20560;-84
2022/01/31 05:56:15;;;;;;;8.77;3.40;;;4.40;99.90;;;;;;5033086;28;20200;-83
2022/01/31 05:58:41;;;;;;;10.30;3.37;;;4.40;99.90;;;;;;5032902;28;20170;-84
2022/01/31 06:01:07;;;;;;;4.37;2.67;;;4.30;99.90;;;;;;5015199;28;20731;-83
2022/01/31 06:03:33;;;;;;;4.03;2.17;;;4.30;99.90;;;;;;5015434;28;20191;-83
2022/01/31 06:05:59;;;;;;;5.70;2.37;;;4.20;99.90;;;;;;5015773;28;20182;-83
2022/01/31 06:08:24;;;;;;;6.47;2.33;;;4.20;99.90;;;;;;5016181;28;20184;-83
2022/01/31 06:10:50;;;;;;;2.67;1.50;;;4.20;99.90;;;;;;5016516;28;20201;-83
2022/01/31 06:13:17;;;;;;;7.80;1.40;;;4.20;99.90;;;;;;5033859;28;20549;-83
2022/01/31 06:15:43;;;;;;;3.63;1.37;;;4.10;99.90;;;;;;5034083;28;20237;-83
2022/01/31 06:18:08;;;;;;;8.10;1.53;;;4.10;99.90;;;;;;5033524;28;20634;-83
2022/01/31 06:20:34;;;;;;;5.33;1.20;;;4.10;99.90;;;;;;5016508;28;20624;-84
2022/01/31 06:23:00;;;;;;;4.03;1.40;;;4.10;99.90;;;;;;5035097;28;20170;-83
2022/01/31 06:25:26;;;;;;;14.43;1.80;;;4.10;99.90;;;;;;5016932;28;20179;-83
2022/01/31 06:27:52;;;;;;;3.53;1.40;;;4.00;99.90;;;;;;5017179;28;20242;-83
2022/01/31 06:30:18;;;;;;;11.83;2.10;;;4.00;99.90;;;;;;5039174;28;20196;-83
2022/01/31 06:32:43;;;;;;;10.40;1.80;;;3.90;99.90;;;;;;5017254;28;20181;-83
2022/01/31 06:35:09;;;;;;;8.13;1.27;;;3.90;99.90;;;;;;5032975;28;20627;-83
2022/01/31 06:37:35;;;;;;;7.70;1.47;;;3.90;99.90;;;;;;5014361;28;20300;-83
2022/01/31 06:40:01;;;;;;;9.23;1.53;;;3.80;99.90;;;;;;5015523;28;20544;-83
2022/01/31 06:42:27;;;;;;;7.83;1.77;;;3.90;99.90;;;;;;5032931;28;20253;-83
2022/01/31 06:44:52;;;;;;;11.23;2.13;;;3.90;99.90;;;;;;5014893;28;20222;-83
2022/01/31 06:47:19;;;;;;;11.37;2.10;;;4.10;99.90;;;;;;5015620;28;20704;-83
2022/01/31 06:49:45;;;;;;;9.93;2.37;;;4.20;99.90;;;;;;5032763;28;20293;-83
2022/01/31 06:52:11;;;;;;;11.00;2.13;;;4.30;99.90;;;;;;5015391;28;20697;-83
2022/01/31 06:54:36;;;;;;;12.23;2.37;;;4.30;99.90;;;;;;5033389;28;20175;-84
2022/01/31 06:57:04;;;;;;;8.73;2.10;;;4.40;99.90;;;;;;5015975;28;20197;-83
2022/01/31 06:59:30;;;;;;;9.67;2.00;;;4.40;99.90;;;;;;5015579;28;20231;-83
2022/01/31 07:01:55;;;;;;;7.70;2.07;;;4.40;99.90;;;;;;5032404;28;20196;-83
2022/01/31 07:04:21;;;;;;;9.70;2.10;;;4.50;99.90;;;;;;5014818;28;20651;-83
2022/01/31 07:06:46;;;;;;;8.90;1.80;;;4.50;99.90;;;;;;5014993;28;20238;-83
2022/01/31 07:09:12;;;;;;;7.57;2.20;;;4.50;99.90;;;;;;5033360;28;20241;-84
2022/01/31 07:11:40;;;;;;;5.30;1.87;;;4.50;99.90;;;;;;5014623;28;20209;-83
2022/01/31 07:14:23;;;;;;;6.00;1.50;;;4.50;99.90;;;;;;5033837;28;20658;-84
2022/01/31 07:16:49;;;;;;;11.47;1.70;;;4.50;99.90;;;;;;5015406;28;20678;-82
2022/01/31 07:19:14;;;;;;;4.93;1.60;;;4.50;99.90;;;;;;5015088;28;20255;-83
2022/01/31 07:21:48;;;;;;;5.73;1.57;;;4.50;99.90;;;;;;5015944;28;20185;-83
2022/01/31 07:26:58;;;;;;;6.07;1.80;;;4.40;99.90;;;;;;5033727;28;20824;-83
2022/01/31 07:29:23;;;;;;;8.53;1.50;;;4.40;99.90;;;;;;5016689;28;20207;-83
2022/01/31 07:31:49;;;;;;;6.43;1.60;;;4.40;99.90;;;;;;5017840;28;20580;-83
2022/01/31 07:34:17;;;;;;;7.07;1.87;;;4.40;99.90;;;;;;5036549;28;20180;-83
2022/01/31 07:36:44;;;;;;;5.87;1.57;;;4.40;99.90;;;;;;5015498;28;20205;-83
2022/01/31 07:39:10;;;;;;;2.93;1.60;;;4.40;99.90;;;;;;5034812;28;20198;-83
2022/01/31 07:41:35;;;;;;;10.00;2.20;;;4.40;99.90;;;;;;5016861;28;20174;-83
2022/01/31 07:44:01;;;;;;;4.87;1.27;;;4.40;99.90;;;;;;5017370;28;20182;-83
2022/01/31 07:46:27;;;;;;;3.87;1.07;;;4.50;99.90;;;;;;5034996;28;20186;-83
2022/01/31 07:48:54;;;;;;;1.67;1.00;;;4.40;99.90;;;;;;5035097;28;20193;-83
2022/01/31 07:51:20;;;;;;;5.27;1.00;;;4.40;99.90;;;;;;5017197;28;20572;-83
2022/01/31 07:53:46;;;;;;;4.33;0.90;;;4.40;99.90;;;;;;5017224;28;20190;-83
2022/01/31 07:56:14;;;;;;;2.77;1.23;;;4.50;99.90;;;;;;5017338;28;20210;-83
2022/01/31 07:58:40;;;;;;;4.13;0.80;;;4.40;99.90;;;;;;5017091;28;20177;-83
2022/01/31 08:01:06;;;;;;;3.87;1.23;;;4.40;99.90;;;;;;5017716;28;20178;-83
2022/01/31 08:03:32;;;;;;;3.00;0.77;;;4.40;99.90;;;;;;5016089;28;20190;-83
2022/01/31 08:05:57;;;;;;;2.43;1.10;;;4.40;99.90;;;;;;5017074;28;20178;-83
2022/01/31 08:08:30;;;;;;;2.07;1.10;;;4.40;99.90;;;;;;5016791;28;20180;-83
2022/01/31 08:11:00;;;;;;;3.77;0.93;;;4.40;99.90;;;;;;5017684;28;20184;-83
2022/01/31 08:13:26;;;;;;;1.37;0.90;;;4.30;99.90;;;;;;5016995;28;20188;-83
2022/01/31 08:18:34;;;;;;;2.20;1.10;;;4.30;99.90;;;;;;5035875;28;20679;-77
2022/01/31 08:21:03;;;;;;;5.33;1.30;;;4.30;99.90;;;;;;5035424;28;20177;-80
2022/01/31 08:23:29;;;;;;;2.83;1.00;;;4.30;99.90;;;;;;5017725;28;20181;-79
2022/01/31 08:25:57;;;;;;;3.07;1.23;;;4.30;99.90;;;;;;5017682;28;20220;-77
2022/01/31 08:28:31;;;;;;;2.07;1.40;;;4.30;99.90;;;;;;5017402;28;20214;-78
2022/01/31 08:31:16;;;;;;;3.57;1.67;;;4.40;99.90;;;;;;5017863;28;20175;-78
2022/01/31 08:34:07;;;;;;;3.73;1.57;;;4.40;99.90;;;;;;5017081;28;20245;-79
2022/01/31 08:36:34;;;;;;;4.13;1.67;;;4.40;99.90;;;;;;5034122;28;20214;-78
2022/01/31 08:39:08;;;;;;;2.13;1.40;;;4.30;99.90;;;;;;5016616;28;20215;-78
2022/01/31 08:41:41;;;;;;;1.53;1.03;;;4.30;99.90;;;;;;5016314;28;20265;-77
2022/01/31 08:44:09;;;;;;;2.60;1.30;;;4.30;99.90;;;;;;5016671;28;20170;-77
2022/01/31 08:46:40;;;;;;;6.87;1.50;;;4.30;99.90;;;;;;5016290;28;20192;-78
2022/01/31 08:49:10;;;;;;;5.43;1.63;;;4.30;99.90;;;;;;5016939;28;20185;-77
2022/01/31 08:51:37;;;;;;;2.13;1.53;;;4.30;99.90;;;;;;5016912;28;20657;-78
2022/01/31 08:54:06;;;;;;;3.83;1.30;;;4.30;99.90;;;;;;5016902;28;20186;-78
2022/01/31 08:56:35;;;;;;;2.97;1.37;;;4.30;99.90;;;;;;5016743;28;20210;-79
2022/01/31 08:59:03;;;;;;;2.20;1.00;;;4.30;99.90;;;;;;5016517;28;20266;-78
2022/01/31 09:01:28;;;;;;;2.23;1.20;;;4.30;99.90;;;;;;5016550;28;20629;-77
2022/01/31 09:04:00;;;;;;;3.13;1.60;;;4.30;99.90;;;;;;5035265;28;20190;-79
2022/01/31 09:06:29;;;;;;;7.37;1.27;;;4.40;99.90;;;;;;5016776;28;20197;-78
2022/01/31 09:08:57;;;;;;;6.13;1.27;;;4.30;99.90;;;;;;5034543;28;20664;-77
2022/01/31 09:11:24;;;;;;;2.47;1.30;;;4.30;99.90;;;;;;5017620;28;20171;-79
2022/01/31 09:13:50;;;;;;;2.23;1.17;;;4.40;99.90;;;;;;5017029;28;20195;-78
2022/01/31 09:16:15;;;;;;;2.23;1.30;;;4.30;99.90;;;;;;5016697;28;20721;-78
2022/01/31 09:18:41;;;;;;;2.60;1.20;;;4.40;99.90;;;;;;5034352;28;20236;-77
2022/01/31 09:21:07;;;;;;;5.73;1.27;;;4.40;99.90;;;;;;5017095;28;20198;-78
2022/01/31 09:23:33;;;;;;;2.47;0.83;;;4.40;99.90;;;;;;5015882;28;20201;-77
2022/01/31 09:25:59;;;;;;;3.07;0.87;;;4.30;99.90;;;;;;5028156;28;20219;-77
2022/01/31 09:28:25;;;;;;;2.40;0.63;;;4.30;99.90;;;;;;5034892;28;20173;-78
2022/01/31 09:30:53;;;;;;;2.50;0.80;;;4.30;99.90;;;;;;5027237;28;20404;-77
2022/01/31 09:33:19;;;;;;;1.50;0.93;;;4.40;99.90;;;;;;5015901;28;20181;-78
2022/01/31 09:35:45;;;;;;;3.03;0.97;;;4.40;99.90;;;;;;5015161;28;20648;-77
2022/01/31 09:38:17;;;;;;;5.20;1.20;;;4.40;99.90;;;;;;5016073;28;20174;-78
2022/01/31 09:40:44;;;;;;;0.60;0.50;;;4.50;99.90;;;;;;5015967;28;20177;-79
2022/01/31 09:45:56;;;;;;;1.83;0.80;;;4.60;99.90;;;;;;5032392;28;20184;-77
2022/01/31 09:48:35;;;;;;;2.80;0.70;;;4.60;99.90;;;;;;5015825;28;20186;-78
2022/01/31 09:51:08;;;;;;;2.27;0.73;;;4.60;99.90;;;;;;5015574;28;20259;-78
2022/01/31 09:53:40;;;;;;;2.53;0.60;;;4.60;99.90;;;;;;5033316;28;20177;-78
2022/01/31 09:56:09;;;;;;;0.87;0.57;;;4.60;99.90;;;;;;5015072;28;20861;-78
2022/01/31 09:58:35;;;;;;;1.53;0.50;;;4.50;99.90;;;;;;5015197;28;20609;-77
2022/01/31 10:01:12;;;;;;;1.57;0.50;;;4.60;99.90;;;;;;5015740;28;20177;-78
2022/01/31 10:04:01;;;;;;;0.30;0.30;;;4.60;99.90;;;;;;5017086;28;20190;-78
2022/01/31 10:06:28;;;;;;;0.30;0.30;;;4.60;99.90;;;;;;5017776;28;20202;-78
2022/01/31 10:09:05;;;;;;;2.23;0.50;;;4.70;99.90;;;;;;5017195;28;20186;-77
2022/01/31 10:11:41;;;;;;;3.17;0.37;;;4.70;99.90;;;;;;5015154;28;20174;-77
2022/01/31 10:16:57;;;;;;;2.63;0.70;;;4.80;99.90;;;;;;5034322;28;20218;-79
2022/01/31 10:19:23;;;;;;;3.93;0.80;;;4.90;99.90;;;;;;5017578;28;20174;-78
2022/01/31 10:21:56;;;;;;;2.10;0.73;;;4.90;99.90;;;;;;5017189;28;20250;-77
2022/01/31 10:24:24;;;;;;;1.50;0.60;;;5.00;99.90;;;;;;5035345;28;20178;-77
2022/01/31 10:26:50;;;;;;;1.80;0.47;;;5.00;99.90;;;;;;5016413;28;20195;-78
2022/01/31 10:29:18;;;;;;;2.70;0.70;;;5.00;99.90;;;;;;5017166;28;20175;-79
2022/01/31 10:32:01;;;;;;;3.43;0.60;;;5.10;99.90;;;;;;5014948;28;20186;-77
2022/01/31 10:34:29;;;;;;;3.67;0.67;;;5.20;99.90;;;;;;5016676;28;20283;-79
2022/01/31 10:37:00;;;;;;;3.83;0.90;;;5.30;99.90;;;;;;5016055;28;20238;-78
2022/01/31 10:54:03;;;;;;;4.40;0.93;;;5.60;99.90;;;;;;5035028;28;20163;-78
2022/01/31 10:56:35;;;;;;;4.47;1.10;;;5.60;99.90;;;;;;5014115;28;20206;-78
2022/01/31 10:59:14;;;;;;;6.47;1.20;;;5.70;99.90;;;;;;5015070;28;20222;-79
2022/01/31 11:04:40;;;;;;;4.13;0.83;;;5.90;99.90;;;;;;5054236;28;20273;-79
2022/01/31 11:07:10;;;;;;;3.90;0.93;;;5.90;99.90;;;;;;5021152;28;20193;-79
2022/01/31 11:09:36;;;;;;;3.73;0.97;;;5.80;99.90;;;;;;5017938;28;20177;-79
2022/01/31 11:12:03;;;;;;;2.63;1.00;;;5.90;99.90;;;;;;5019925;28;20177;-79
2022/01/31 11:14:28;;;;;;;3.37;1.00;;;5.80;99.90;;;;;;5039456;28;20206;-79
2022/01/31 11:16:55;;;;;;;3.50;1.20;;;5.80;99.90;;;;;;5021427;28;20648;-79
2022/01/31 11:19:33;;;;;;;6.03;1.27;;;5.80;99.90;;;;;;5021349;28;20257;-79
2022/01/31 11:22:03;;;;;;;3.77;0.73;;;5.80;99.90;;;;;;5021853;28;20181;-79
2022/01/31 11:24:35;;;;;;;6.10;1.30;;;5.80;99.90;;;;;;5021444;28;20333;-78
2022/01/31 11:27:13;;;;;;;6.30;1.03;;;5.80;99.90;;;;;;5021759;28;20198;-79
2022/01/31 11:29:46;;;;;;;5.70;1.10;;;5.90;99.90;;;;;;5021579;28;20265;-78
2022/01/31 11:32:13;;;;;;;4.03;1.07;;;5.90;99.90;;;;;;5018357;28;20257;-78
2022/01/31 11:34:41;;;;;;;7.13;1.57;;;6.00;99.90;;;;;;5019134;28;20184;-78
2022/01/31 11:37:13;;;;;;;4.53;0.70;;;6.00;99.90;;;;;;5019845;28;20625;-78
2022/01/31 11:39:42;;;;;;;3.40;0.80;;;6.00;99.90;;;;;;5020200;28;20196;-79
2022/01/31 11:42:09;;;;;;;7.37;1.00;;;5.90;99.90;;;;;;5022032;28;20638;-78
2022/01/31 11:44:50;;;;;;;3.77;0.70;;;5.90;99.90;;;;;;5020096;28;20200;-78
2022/01/31 11:47:24;;;;;;;3.30;0.73;;;5.80;99.90;;;;;;5020707;28;20279;-78
2022/01/31 11:49:54;;;;;;;5.00;0.90;;;6.00;99.90;;;;;;5021831;28;20188;-78
2022/01/31 11:52:21;;;;;;;3.10;1.00;;;6.50;99.90;;;;;;5020728;28;20205;-79
2022/01/31 11:54:51;;;;;;;5.57;0.90;;;6.80;99.90;;;;;;5021361;28;20196;-78
2022/01/31 11:57:26;;;;;;;2.33;0.90;;;7.10;99.90;;;;;;5021855;28;20209;-79
2022/01/31 11:59:57;;;;;;;7.27;0.87;;;7.20;99.90;;;;;;5039821;28;20162;-79
2022/01/31 12:02:24;;;;;;;5.90;0.93;;;7.40;99.90;;;;;;5018427;28;20250;-78
2022/01/31 12:04:52;;;;;;;3.57;0.83;;;7.40;99.90;;;;;;5016292;28;20201;-78
2022/01/31 12:07:39;;;;;;;4.50;0.67;;;7.30;99.90;;;;;;5017078;28;20744;-78
2022/01/31 12:10:08;;;;;;;3.40;0.67;;;7.20;99.90;;;;;;5016566;28;20181;-78
2022/01/31 12:12:48;;;;;;;3.10;0.80;;;7.20;99.90;;;;;;5018457;28;20664;-79
2022/01/31 12:16:23;;;;;;;5.20;1.03;;;7.00;99.90;;;;;;5019416;28;20208;-78
2022/01/31 12:24:10;;;;;;;4.63;1.10;;;7.00;99.90;;;;;;5038081;28;20265;-79
2022/01/31 12:26:49;;;;;;;5.17;0.90;;;6.90;99.90;;;;;;5019009;28;20189;-78
2022/01/31 12:29:18;;;;;;;1.60;0.93;;;6.90;99.90;;;;;;5017357;28;20181;-78
2022/01/31 12:31:48;;;;;;;3.43;0.90;;;7.00;99.90;;;;;;5018885;28;20181;-77
2022/01/31 12:34:17;;;;;;;4.80;0.70;;;7.10;99.90;;;;;;5016014;28;20178;-78
2022/01/31 12:36:42;;;;;;;2.47;1.00;;;7.00;99.90;;;;;;5033571;28;20252;-77
2022/01/31 12:39:42;;;;;;;9.30;1.20;;;7.00;99.90;;;;;;5019693;28;20604;-79
2022/01/31 12:45:43;;;;;;;5.63;1.20;;;6.80;99.90;;;;;;5036773;28;20196;-78
2022/01/31 12:48:22;;;;;;;2.00;0.87;;;6.90;99.90;;;;;;5019719;28;20185;-79
2022/01/31 12:50:58;;;;;;;1.40;0.70;;;6.80;99.90;;;;;;5020978;28;20180;-80
2022/01/31 12:53:24;;;;;;;8.70;1.20;;;6.80;99.90;;;;;;5020082;28;20182;-80
2022/01/31 12:55:58;;;;;;;13.00;2.40;;;6.90;99.90;;;;;;5021001;28;20210;-78
2022/01/31 12:58:30;;;;;;;15.90;3.10;;;6.80;99.90;;;;;;5021257;28;20173;-82
2022/01/31 13:00:56;;;;;;;5.33;1.70;;;6.90;99.90;;;;;;5021445;28;20166;-81
2022/01/31 13:03:32;;;;;;;5.70;1.60;;;7.10;99.90;;;;;;5019697;28;20523;-81
2022/01/31 13:05:58;;;;;;;4.63;1.13;;;7.20;99.90;;;;;;5019448;28;20192;-78
2022/01/31 13:08:24;;;;;;;3.03;0.70;;;7.20;99.90;;;;;;5019145;28;20516;-78
2022/01/31 13:10:53;;;;;;;5.80;1.00;;;7.20;99.90;;;;;;5018267;28;20180;-78
2022/01/31 13:13:31;;;;;;;2.43;0.90;;;7.10;99.90;;;;;;5017154;28;20696;-78
2022/01/31 13:16:17;;;;;;;0.97;0.90;;;7.10;99.90;;;;;;5018675;28;20230;-79
2022/01/31 13:18:44;;;;;;;3.03;0.93;;;7.00;99.90;;;;;;5015355;28;20181;-78
2022/01/31 13:21:12;;;;;;;1.47;0.90;;;7.00;99.90;;;;;;5017569;28;20247;-79
2022/01/31 13:23:40;;;;;;;4.60;1.00;;;6.90;99.90;;;;;;5018629;28;20171;-78
2022/01/31 13:26:08;;;;;;;7.00;1.30;;;6.90;99.90;;;;;;5017487;28;20190;-78
2022/01/31 13:28:35;;;;;;;6.93;1.10;;;6.90;99.90;;;;;;5017897;28;20705;-80
2022/01/31 13:31:11;;;;;;;2.90;1.03;;;6.90;99.90;;;;;;5018455;28;20663;-79
2022/01/31 13:33:47;;;;;;;5.77;1.13;;;7.00;99.90;;;;;;5017682;28;20170;-79
2022/01/31 13:36:13;;;;;;;5.53;1.13;;;7.00;99.90;;;;;;5018563;28;20224;-78
2022/01/31 13:38:39;;;;;;;4.43;1.10;;;7.00;99.90;;;;;;5018901;28;20269;-78
2022/01/31 13:41:05;;;;;;;3.83;0.93;;;7.10;99.90;;;;;;5019777;28;20171;-79